sensor_id;sensor_type;location;lat;lon;timestamp;pressure;altitude;pressure_sealevel;temperature;humidity
61618;BME280;47518;51.776;9.370;2023-02-13T00:02:04;102472.16;;;8.08;82.50
61618;BME280;47518;51.776;9.370;2023-02-13T00:04:29;102469.34;;;8.23;82.34
61618;BME280;47518;51.776;9.370;2023-02-13T00:06:54;102471.19;;;8.22;82.68
61618;BME280;47518;51.776;9.370;2023-02-13T00:09:20;102470.75;;;8.28;82.16
61618;BME280;47518;51.776;9.370;2023-02-13T00:11:45;102468.25;;;8.00;82.52
61618;BME280;47518;51.776;9.370;2023-02-13T00:14:10;102476.81;;;7.94;82.67
61618;BME280;47518;51.776;9.370;2023-02-13T00:16:36;102471.59;;;7.90;82.35
61618;BME280;47518;51.776;9.370;2023-02-13T00:19:01;102475.47;;;7.86;82.78
61618;BME280;47518;51.776;9.370;2023-02-13T00:21:26;102472.13;;;7.83;83.14
61618;BME280;47518;51.776;9.370;2023-02-13T00:23:52;102474.56;;;8.13;82.39
61618;BME280;47518;51.776;9.370;2023-02-13T00:26:17;102470.75;;;8.15;82.24
61618;BME280;47518;51.776;9.370;2023-02-13T00:28:43;102478.66;;;8.18;82.09
61618;BME280;47518;51.776;9.370;2023-02-13T00:31:12;102480.72;;;8.15;82.58
61618;BME280;47518;51.776;9.370;2023-02-13T00:33:38;102484.63;;;8.24;82.38
61618;BME280;47518;51.776;9.370;2023-02-13T00:36:20;102475.19;;;8.29;82.05
61618;BME280;47518;51.776;9.370;2023-02-13T00:38:47;102477.16;;;8.27;81.50
61618;BME280;47518;51.776;9.370;2023-02-13T00:41:13;102473.78;;;8.24;82.19
61618;BME280;47518;51.776;9.370;2023-02-13T00:43:40;102474.31;;;8.16;82.32
61618;BME280;47518;51.776;9.370;2023-02-13T00:46:06;102468.91;;;8.29;82.09
61618;BME280;47518;51.776;9.370;2023-02-13T00:48:32;102479.50;;;8.32;82.12
61618;BME280;47518;51.776;9.370;2023-02-13T00:50:58;102477.69;;;8.45;82.51
61618;BME280;47518;51.776;9.370;2023-02-13T00:53:24;102479.13;;;8.38;81.63
61618;BME280;47518;51.776;9.370;2023-02-13T00:55:51;102475.66;;;8.36;81.82
61618;BME280;47518;51.776;9.370;2023-02-13T00:58:17;102470.88;;;8.14;82.91
61618;BME280;47518;51.776;9.370;2023-02-13T01:00:43;102467.41;;;8.37;82.14
61618;BME280;47518;51.776;9.370;2023-02-13T01:03:08;102465.22;;;8.30;83.00
61618;BME280;47518;51.776;9.370;2023-02-13T01:05:34;102462.09;;;8.36;82.32
61618;BME280;47518;51.776;9.370;2023-02-13T01:07:59;102463.94;;;8.23;83.47
61618;BME280;47518;51.776;9.370;2023-02-13T01:10:25;102463.50;;;8.03;83.55
61618;BME280;47518;51.776;9.370;2023-02-13T01:12:50;102469.34;;;8.23;83.74
61618;BME280;47518;51.776;9.370;2023-02-13T01:15:16;102460.13;;;8.25;84.62
61618;BME280;47518;51.776;9.370;2023-02-13T01:17:41;102455.91;;;8.34;83.73
61618;BME280;47518;51.776;9.370;2023-02-13T01:20:09;102457.09;;;8.30;84.15
61618;BME280;47518;51.776;9.370;2023-02-13T01:22:35;102452.13;;;8.24;84.58
61618;BME280;47518;51.776;9.370;2023-02-13T01:25:00;102459.47;;;8.22;83.93
61618;BME280;47518;51.776;9.370;2023-02-13T01:27:27;102460.34;;;8.09;83.90
61618;BME280;47518;51.776;9.370;2023-02-13T01:29:52;102456.97;;;8.18;84.37
61618;BME280;47518;51.776;9.370;2023-02-13T01:32:18;102461.75;;;8.15;84.58
61618;BME280;47518;51.776;9.370;2023-02-13T01:34:43;102461.00;;;8.13;84.85
61618;BME280;47518;51.776;9.370;2023-02-13T01:37:09;102465.00;;;8.07;85.60
61618;BME280;47518;51.776;9.370;2023-02-13T01:39:34;102468.69;;;7.94;86.01
61618;BME280;47518;51.776;9.370;2023-02-13T01:41:59;102453.53;;;7.91;87.17
61618;BME280;47518;51.776;9.370;2023-02-13T01:44:47;102455.03;;;8.08;86.45
61618;BME280;47518;51.776;9.370;2023-02-13T01:47:16;102456.44;;;8.01;85.57
61618;BME280;47518;51.776;9.370;2023-02-13T01:49:44;102454.59;;;8.14;85.19
61618;BME280;47518;51.776;9.370;2023-02-13T01:52:11;102458.06;;;8.03;86.60
61618;BME280;47518;51.776;9.370;2023-02-13T01:54:38;102454.59;;;8.14;85.22
61618;BME280;47518;51.776;9.370;2023-02-13T01:57:09;102452.00;;;8.12;85.75
61618;BME280;47518;51.776;9.370;2023-02-13T01:59:43;102449.19;;;8.14;85.20
61618;BME280;47518;51.776;9.370;2023-02-13T02:02:12;102446.72;;;8.11;86.22
61618;BME280;47518;51.776;9.370;2023-02-13T02:04:39;102446.59;;;8.25;85.78
61618;BME280;47518;51.776;9.370;2023-02-13T02:07:19;102440.41;;;8.10;85.77
61618;BME280;47518;51.776;9.370;2023-02-13T02:09:45;102440.31;;;8.12;86.85
61618;BME280;47518;51.776;9.370;2023-02-13T02:12:20;102436.72;;;8.11;86.52
61618;BME280;47518;51.776;9.370;2023-02-13T02:14:48;102436.72;;;8.11;86.81
61618;BME280;47518;51.776;9.370;2023-02-13T02:17:15;102437.25;;;8.16;86.21
61618;BME280;47518;51.776;9.370;2023-02-13T02:19:49;102424.38;;;7.82;86.92
61618;BME280;47518;51.776;9.370;2023-02-13T02:25:49;102423.84;;;8.02;87.16
61618;BME280;47518;51.776;9.370;2023-02-13T02:47:40;102422.75;;;6.73;95.14
61618;BME280;47518;51.776;9.370;2023-02-13T03:03:55;102399.03;;;6.64;95.77
61618;BME280;47518;51.776;9.370;2023-02-13T03:06:47;102392.88;;;6.62;95.50
61618;BME280;47518;51.776;9.370;2023-02-13T03:09:18;102404.00;;;6.84;94.67
61618;BME280;47518;51.776;9.370;2023-02-13T03:12:05;102400.81;;;6.78;94.68
61618;BME280;47518;51.776;9.370;2023-02-13T03:14:52;102404.56;;;7.29;92.45
61618;BME280;47518;51.776;9.370;2023-02-13T03:17:18;102397.25;;;7.04;92.93
61618;BME280;47518;51.776;9.370;2023-02-13T03:38:29;102400.75;;;6.65;93.71
61618;BME280;47518;51.776;9.370;2023-02-13T03:41:02;102396.53;;;6.88;92.52
61618;BME280;47518;51.776;9.370;2023-02-13T03:44:09;102401.25;;;6.98;91.29
61618;BME280;47518;51.776;9.370;2023-02-13T03:46:39;102402.56;;;6.79;92.89
61618;BME280;47518;51.776;9.370;2023-02-13T03:49:09;102410.13;;;7.00;91.62
61618;BME280;47518;51.776;9.370;2023-02-13T03:52:00;102409.63;;;7.08;92.28
61618;BME280;47518;51.776;9.370;2023-02-13T03:54:36;102408.81;;;6.79;90.31
61618;BME280;47518;51.776;9.370;2023-02-13T03:57:23;102411.88;;;6.46;91.81
61618;BME280;47518;51.776;9.370;2023-02-13T04:00:13;102413.13;;;6.55;91.13
61618;BME280;47518;51.776;9.370;2023-02-13T04:02:47;102411.34;;;6.41;91.67
61618;BME280;47518;51.776;9.370;2023-02-13T04:05:19;102405.78;;;6.57;90.32
61618;BME280;47518;51.776;9.370;2023-02-13T04:07:46;102414.88;;;6.56;90.68
61618;BME280;47518;51.776;9.370;2023-02-13T04:10:13;102413.25;;;6.53;90.91
61618;BME280;47518;51.776;9.370;2023-02-13T04:13:00;102420.34;;;6.68;89.80
61618;BME280;47518;51.776;9.370;2023-02-13T04:15:33;102415.47;;;6.61;90.61
61618;BME280;47518;51.776;9.370;2023-02-13T04:18:09;102414.28;;;6.65;90.76
61618;BME280;47518;51.776;9.370;2023-02-13T04:20:37;102408.06;;;6.77;90.52
61618;BME280;47518;51.776;9.370;2023-02-13T04:23:05;102413.97;;;7.23;88.42
61618;BME280;47518;51.776;9.370;2023-02-13T04:25:32;102405.31;;;7.18;88.56
61618;BME280;47518;51.776;9.370;2023-02-13T04:27:57;102407.44;;;7.13;87.64
61618;BME280;47518;51.776;9.370;2023-02-13T04:30:23;102406.69;;;7.11;87.30
61618;BME280;47518;51.776;9.370;2023-02-13T04:32:48;102412.28;;;6.81;89.15
61618;BME280;47518;51.776;9.370;2023-02-13T04:35:13;102415.25;;;6.91;89.30
61618;BME280;47518;51.776;9.370;2023-02-13T04:37:39;102407.50;;;6.72;89.51
61618;BME280;47518;51.776;9.370;2023-02-13T04:40:05;102405.75;;;6.71;89.29
61618;BME280;47518;51.776;9.370;2023-02-13T04:42:30;102402.75;;;7.02;89.22
61618;BME280;47518;51.776;9.370;2023-02-13T04:44:56;102415.84;;;6.96;88.70
61618;BME280;47518;51.776;9.370;2023-02-13T04:47:21;102416.22;;;6.90;88.86
61618;BME280;47518;51.776;9.370;2023-02-13T04:49:46;102409.56;;;6.95;87.80
61618;BME280;47518;51.776;9.370;2023-02-13T04:52:12;102404.88;;;6.70;90.40
61618;BME280;47518;51.776;9.370;2023-02-13T04:54:39;102406.38;;;6.62;89.37
61618;BME280;47518;51.776;9.370;2023-02-13T04:57:05;102398.88;;;6.53;90.04
61618;BME280;47518;51.776;9.370;2023-02-13T04:59:30;102396.34;;;6.64;90.37
61618;BME280;47518;51.776;9.370;2023-02-13T05:01:55;102401.59;;;7.07;88.52
61618;BME280;47518;51.776;9.370;2023-02-13T05:04:21;102402.09;;;6.99;87.36
61618;BME280;47518;51.776;9.370;2023-02-13T05:06:46;102399.06;;;6.50;90.65
61618;BME280;47518;51.776;9.370;2023-02-13T05:09:11;102403.19;;;6.55;91.12
61618;BME280;47518;51.776;9.370;2023-02-13T05:11:37;102405.09;;;6.67;90.96
61618;BME280;47518;51.776;9.370;2023-02-13T05:14:02;102411.56;;;6.65;91.02
61618;BME280;47518;51.776;9.370;2023-02-13T05:16:27;102401.41;;;6.68;90.32
61618;BME280;47518;51.776;9.370;2023-02-13T05:18:53;102414.59;;;6.60;90.99
61618;BME280;47518;51.776;9.370;2023-02-13T05:21:20;102406.94;;;6.67;90.81
61618;BME280;47518;51.776;9.370;2023-02-13T05:24:05;102409.56;;;6.54;92.01
61618;BME280;47518;51.776;9.370;2023-02-13T05:26:31;102406.53;;;6.18;93.50
61618;BME280;47518;51.776;9.370;2023-02-13T05:28:56;102399.38;;;6.31;93.08
61618;BME280;47518;51.776;9.370;2023-02-13T05:31:41;102398.59;;;6.43;93.04
61618;BME280;47518;51.776;9.370;2023-02-13T05:34:07;102401.28;;;6.43;92.35
61618;BME280;47518;51.776;9.370;2023-02-13T05:36:32;102404.28;;;6.38;92.73
61618;BME280;47518;51.776;9.370;2023-02-13T05:38:57;102402.94;;;6.31;93.12
61618;BME280;47518;51.776;9.370;2023-02-13T05:41:23;102402.81;;;6.47;92.64
61618;BME280;47518;51.776;9.370;2023-02-13T05:43:48;102393.03;;;6.73;91.45
61618;BME280;47518;51.776;9.370;2023-02-13T05:46:14;102399.47;;;6.70;91.44
61618;BME280;47518;51.776;9.370;2023-02-13T05:48:39;102405.38;;;6.77;90.34
61618;BME280;47518;51.776;9.370;2023-02-13T05:51:04;102402.66;;;6.77;90.61
61618;BME280;47518;51.776;9.370;2023-02-13T05:53:30;102398.59;;;6.84;91.01
61618;BME280;47518;51.776;9.370;2023-02-13T05:55:59;102396.19;;;6.80;90.09
61618;BME280;47518;51.776;9.370;2023-02-13T05:58:24;102408.16;;;6.76;90.21
61618;BME280;47518;51.776;9.370;2023-02-13T06:00:49;102409.34;;;6.71;91.29
61618;BME280;47518;51.776;9.370;2023-02-13T06:03:15;102416.94;;;6.79;90.51
61618;BME280;47518;51.776;9.370;2023-02-13T06:05:40;102407.94;;;6.52;90.38
61618;BME280;47518;51.776;9.370;2023-02-13T06:08:06;102420.69;;;6.35;91.08
61618;BME280;47518;51.776;9.370;2023-02-13T06:43:42;102450.50;;;6.05;90.47
61618;BME280;47518;51.776;9.370;2023-02-13T06:46:08;102457.38;;;6.25;90.31
61618;BME280;47518;51.776;9.370;2023-02-13T06:48:33;102456.78;;;6.20;89.97
61618;BME280;47518;51.776;9.370;2023-02-13T06:51:01;102457.72;;;5.91;91.72
61618;BME280;47518;51.776;9.370;2023-02-13T06:53:28;102457.84;;;6.18;90.67
61618;BME280;47518;51.776;9.370;2023-02-13T06:55:54;102467.28;;;6.10;90.50
61618;BME280;47518;51.776;9.370;2023-02-13T06:58:21;102457.25;;;6.12;91.05
61618;BME280;47518;51.776;9.370;2023-02-13T07:00:47;102466.31;;;6.11;90.26
61618;BME280;47518;51.776;9.370;2023-02-13T07:03:13;102464.09;;;6.04;90.34
61618;BME280;47518;51.776;9.370;2023-02-13T07:05:39;102474.09;;;6.02;91.53
61618;BME280;47518;51.776;9.370;2023-02-13T07:08:09;102471.66;;;5.83;91.95
61618;BME280;47518;51.776;9.370;2023-02-13T07:10:37;102471.13;;;5.92;92.25
61618;BME280;47518;51.776;9.370;2023-02-13T07:13:03;102476.09;;;5.84;92.01
61618;BME280;47518;51.776;9.370;2023-02-13T07:15:33;102473.19;;;5.87;92.17
61618;BME280;47518;51.776;9.370;2023-02-13T07:18:02;102484.28;;;5.82;92.85
61618;BME280;47518;51.776;9.370;2023-02-13T07:20:28;102485.13;;;5.69;92.64
61618;BME280;47518;51.776;9.370;2023-02-13T07:23:03;102485.28;;;5.66;93.39
61618;BME280;47518;51.776;9.370;2023-02-13T07:25:31;102481.94;;;5.92;91.72
61618;BME280;47518;51.776;9.370;2023-02-13T07:28:02;102483.78;;;5.76;92.60
61618;BME280;47518;51.776;9.370;2023-02-13T07:30:37;102491.00;;;5.91;91.93
61618;BME280;47518;51.776;9.370;2023-02-13T07:33:04;102485.22;;;6.11;90.48
61618;BME280;47518;51.776;9.370;2023-02-13T07:35:30;102488.88;;;6.10;91.09
61618;BME280;47518;51.776;9.370;2023-02-13T07:37:55;102482.63;;;6.24;89.58
61618;BME280;47518;51.776;9.370;2023-02-13T07:40:21;102483.97;;;6.03;90.33
61618;BME280;47518;51.776;9.370;2023-02-13T07:42:47;102483.13;;;6.17;89.58
61618;BME280;47518;51.776;9.370;2023-02-13T07:45:12;102480.69;;;5.98;90.72
61618;BME280;47518;51.776;9.370;2023-02-13T07:47:40;102478.97;;;6.25;88.94
61618;BME280;47518;51.776;9.370;2023-02-13T07:50:14;102479.56;;;6.30;88.67
61618;BME280;47518;51.776;9.370;2023-02-13T07:53:01;102481.38;;;6.16;89.50
61618;BME280;47518;51.776;9.370;2023-02-13T07:55:35;102481.84;;;5.94;89.63
61618;BME280;47518;51.776;9.370;2023-02-13T07:58:05;102472.97;;;6.06;89.71
61618;BME280;47518;51.776;9.370;2023-02-13T08:00:33;102473.19;;;6.31;88.41
61618;BME280;47518;51.776;9.370;2023-02-13T08:03:00;102482.44;;;6.56;87.04
61618;BME280;47518;51.776;9.370;2023-02-13T08:05:30;102479.16;;;6.51;87.94
61618;BME280;47518;51.776;9.370;2023-02-13T08:08:06;102481.19;;;6.33;87.00
61618;BME280;47518;51.776;9.370;2023-02-13T08:10:54;102486.38;;;6.64;87.52
61618;BME280;47518;51.776;9.370;2023-02-13T08:16:39;102484.84;;;6.32;87.22
61618;BME280;47518;51.776;9.370;2023-02-13T08:19:19;102483.81;;;6.49;87.50
61618;BME280;47518;51.776;9.370;2023-02-13T08:21:47;102481.25;;;6.74;85.54
61618;BME280;47518;51.776;9.370;2023-02-13T08:24:32;102491.59;;;6.67;86.39
61618;BME280;47518;51.776;9.370;2023-02-13T08:27:21;102491.38;;;6.70;85.99
61618;BME280;47518;51.776;9.370;2023-02-13T08:29:48;102492.00;;;6.61;86.59
61618;BME280;47518;51.776;9.370;2023-02-13T08:32:37;102497.66;;;6.71;86.42
61618;BME280;47518;51.776;9.370;2023-02-13T08:35:21;102498.19;;;7.05;84.72
61618;BME280;47518;51.776;9.370;2023-02-13T08:37:49;102491.88;;;7.18;84.85
61618;BME280;47518;51.776;9.370;2023-02-13T08:40:15;102490.03;;;7.19;84.66
61618;BME280;47518;51.776;9.370;2023-02-13T08:42:43;102488.50;;;7.15;85.11
61618;BME280;47518;51.776;9.370;2023-02-13T08:45:09;102489.69;;;7.11;83.81
61618;BME280;47518;51.776;9.370;2023-02-13T08:47:50;102480.09;;;7.19;83.14
61618;BME280;47518;51.776;9.370;2023-02-13T08:50:15;102484.59;;;6.92;84.94
61618;BME280;47518;51.776;9.370;2023-02-13T08:52:44;102482.16;;;7.01;84.13
61618;BME280;47518;51.776;9.370;2023-02-13T08:55:16;102483.50;;;7.09;84.26
61618;BME280;47518;51.776;9.370;2023-02-13T08:57:44;102493.94;;;7.27;84.61
61618;BME280;47518;51.776;9.370;2023-02-13T09:00:15;102490.50;;;7.25;83.33
61618;BME280;47518;51.776;9.370;2023-02-13T09:02:44;102488.03;;;7.08;83.70
61618;BME280;47518;51.776;9.370;2023-02-13T09:05:10;102484.06;;;7.14;83.82
61618;BME280;47518;51.776;9.370;2023-02-13T09:07:35;102487.50;;;6.89;84.05
61618;BME280;47518;51.776;9.370;2023-02-13T09:10:03;102472.31;;;7.00;83.09
61618;BME280;47518;51.776;9.370;2023-02-13T09:12:32;102482.25;;;7.27;83.98
61618;BME280;47518;51.776;9.370;2023-02-13T09:14:57;102478.47;;;7.02;83.11
61618;BME280;47518;51.776;9.370;2023-02-13T09:17:32;102482.53;;;7.37;83.23
61618;BME280;47518;51.776;9.370;2023-02-13T09:20:11;102490.84;;;7.34;83.27
61618;BME280;47518;51.776;9.370;2023-02-13T09:22:39;102481.00;;;7.32;82.04
61618;BME280;47518;51.776;9.370;2023-02-13T09:25:11;102481.19;;;7.02;83.32
61618;BME280;47518;51.776;9.370;2023-02-13T09:27:36;102490.44;;;7.40;83.05
61618;BME280;47518;51.776;9.370;2023-02-13T09:30:06;102483.25;;;7.53;81.54
61618;BME280;47518;51.776;9.370;2023-02-13T09:32:35;102480.53;;;7.53;80.58
61618;BME280;47518;51.776;9.370;2023-02-13T09:35:05;102483.78;;;7.58;81.13
61618;BME280;47518;51.776;9.370;2023-02-13T09:37:31;102479.00;;;6.95;83.25
61618;BME280;47518;51.776;9.370;2023-02-13T09:40:04;102485.91;;;6.72;84.18
61618;BME280;47518;51.776;9.370;2023-02-13T09:42:33;102490.53;;;6.84;84.87
61618;BME280;47518;51.776;9.370;2023-02-13T09:45:03;102498.91;;;7.21;83.00
61618;BME280;47518;51.776;9.370;2023-02-13T09:47:38;102497.03;;;7.09;83.96
61618;BME280;47518;51.776;9.370;2023-02-13T09:50:28;102494.31;;;7.09;83.67
61618;BME280;47518;51.776;9.370;2023-02-13T09:58:48;102487.91;;;7.64;82.07
61618;BME280;47518;51.776;9.370;2023-02-13T10:01:27;102486.50;;;7.71;81.25
61618;BME280;47518;51.776;9.370;2023-02-13T10:04:16;102499.09;;;7.84;80.10
61618;BME280;47518;51.776;9.370;2023-02-13T10:06:46;102493.91;;;7.81;81.49
61618;BME280;47518;51.776;9.370;2023-02-13T10:27:38;102495.13;;;8.15;79.00
61618;BME280;47518;51.776;9.370;2023-02-13T10:30:07;102478.88;;;8.03;78.95
61618;BME280;47518;51.776;9.370;2023-02-13T10:46:17;102478.53;;;8.07;80.90
61618;BME280;47518;51.776;9.370;2023-02-13T11:14:59;102468.88;;;7.65;80.92
61618;BME280;47518;51.776;9.370;2023-02-13T11:17:27;102466.28;;;7.76;81.53
61618;BME280;47518;51.776;9.370;2023-02-13T11:19:56;102476.06;;;8.17;79.93
61618;BME280;47518;51.776;9.370;2023-02-13T11:22:30;102463.78;;;7.99;79.40
61618;BME280;47518;51.776;9.370;2023-02-13T11:25:00;102472.34;;;7.80;79.10
61618;BME280;47518;51.776;9.370;2023-02-13T11:27:32;102469.53;;;7.81;80.24
61618;BME280;47518;51.776;9.370;2023-02-13T11:30:00;102470.00;;;7.48;81.36
61618;BME280;47518;51.776;9.370;2023-02-13T11:32:29;102465.44;;;7.88;80.78
61618;BME280;47518;51.776;9.370;2023-02-13T11:34:55;102464.22;;;7.80;79.86
61618;BME280;47518;51.776;9.370;2023-02-13T11:40:28;102463.03;;;8.09;80.47
61618;BME280;47518;51.776;9.370;2023-02-13T11:42:55;102456.97;;;8.31;79.07
61618;BME280;47518;51.776;9.370;2023-02-13T11:45:23;102452.19;;;8.09;79.67
61618;BME280;47518;51.776;9.370;2023-02-13T11:47:51;102446.66;;;7.85;78.90
61618;BME280;47518;51.776;9.370;2023-02-13T11:50:33;102448.09;;;7.91;79.84
61618;BME280;47518;51.776;9.370;2023-02-13T11:53:17;102444.75;;;7.87;80.29
61618;BME280;47518;51.776;9.370;2023-02-13T11:55:45;102436.72;;;8.24;79.85
61618;BME280;47518;51.776;9.370;2023-02-13T11:58:25;102439.19;;;8.53;77.55
61618;BME280;47518;51.776;9.370;2023-02-13T12:01:09;102439.81;;;8.69;76.03
61618;BME280;47518;51.776;9.370;2023-02-13T12:03:34;102448.19;;;8.53;76.38
61618;BME280;47518;51.776;9.370;2023-02-13T12:08:46;102446.16;;;8.57;76.46
61618;BME280;47518;51.776;9.370;2023-02-13T12:11:37;102425.53;;;8.54;76.37
61618;BME280;47518;51.776;9.370;2023-02-13T12:14:03;102425.88;;;7.73;80.01
61618;BME280;47518;51.776;9.370;2023-02-13T12:16:37;102423.59;;;7.80;79.79
61618;BME280;47518;51.776;9.370;2023-02-13T12:19:09;102425.34;;;7.94;80.74
61618;BME280;47518;51.776;9.370;2023-02-13T12:54:06;102389.31;;;8.79;76.60
61618;BME280;47518;51.776;9.370;2023-02-13T12:56:55;102383.94;;;9.14;75.00
61618;BME280;47518;51.776;9.370;2023-02-13T13:22:12;102375.75;;;10.18;70.07
61618;BME280;47518;51.776;9.370;2023-02-13T14:18:25;102307.06;;;13.05;57.84
61618;BME280;47518;51.776;9.370;2023-02-13T14:20:53;102318.09;;;12.84;57.52
61618;BME280;47518;51.776;9.370;2023-02-13T14:36:35;102291.38;;;13.46;56.28
61618;BME280;47518;51.776;9.370;2023-02-13T14:39:05;102286.66;;;12.90;57.21
61618;BME280;47518;51.776;9.370;2023-02-13T14:55:02;102291.84;;;11.11;65.15
61618;BME280;47518;51.776;9.370;2023-02-13T14:57:33;102285.53;;;10.90;66.89
61618;BME280;47518;51.776;9.370;2023-02-13T15:00:08;102273.59;;;11.02;66.96
61618;BME280;47518;51.776;9.370;2023-02-13T15:02:44;102279.16;;;11.21;65.21
61618;BME280;47518;51.776;9.370;2023-02-13T15:18:23;102289.91;;;10.81;67.41
61618;BME280;47518;51.776;9.370;2023-02-13T15:20:49;102272.53;;;10.61;67.26
61618;BME280;47518;51.776;9.370;2023-02-13T15:23:21;102269.97;;;10.48;68.28
61618;BME280;47518;51.776;9.370;2023-02-13T15:25:47;102275.97;;;10.09;68.81
61618;BME280;47518;51.776;9.370;2023-02-13T15:28:20;102280.19;;;9.90;69.80
61618;BME280;47518;51.776;9.370;2023-02-13T15:30:58;102272.75;;;9.92;69.77
61618;BME280;47518;51.776;9.370;2023-02-13T15:33:27;102275.00;;;9.76;69.90
61618;BME280;47518;51.776;9.370;2023-02-13T15:35:54;102272.28;;;9.76;71.05
61618;BME280;47518;51.776;9.370;2023-02-13T15:38:35;102272.16;;;9.78;71.04
61618;BME280;47518;51.776;9.370;2023-02-13T15:41:06;102263.88;;;9.79;72.03
61618;BME280;47518;51.776;9.370;2023-02-13T15:43:39;102267.22;;;9.72;71.65
61618;BME280;47518;51.776;9.370;2023-02-13T15:46:30;102264.88;;;9.56;72.82
61618;BME280;47518;51.776;9.370;2023-02-13T15:48:59;102258.44;;;9.46;72.94
61618;BME280;47518;51.776;9.370;2023-02-13T15:51:29;102264.50;;;9.38;73.94
61618;BME280;47518;51.776;9.370;2023-02-13T15:53:57;102255.72;;;9.34;73.41
61618;BME280;47518;51.776;9.370;2023-02-13T15:56:23;102253.84;;;9.24;73.53
61618;BME280;47518;51.776;9.370;2023-02-13T15:58:50;102255.47;;;9.26;73.85
61618;BME280;47518;51.776;9.370;2023-02-13T16:01:16;102253.44;;;8.95;74.61
61618;BME280;47518;51.776;9.370;2023-02-13T16:03:44;102250.94;;;8.57;75.11
61618;BME280;47518;51.776;9.370;2023-02-13T16:06:14;102246.81;;;8.27;75.99
61618;BME280;47518;51.776;9.370;2023-02-13T16:08:44;102250.06;;;8.19;77.69
61618;BME280;47518;51.776;9.370;2023-02-13T16:14:20;102255.63;;;8.18;77.30
61618;BME280;47518;51.776;9.370;2023-02-13T16:16:55;102253.22;;;7.89;78.11
61618;BME280;47518;51.776;9.370;2023-02-13T16:32:33;102281.53;;;7.60;79.00
61618;BME280;47518;51.776;9.370;2023-02-13T16:35:25;102283.47;;;7.45;79.67
61618;BME280;47518;51.776;9.370;2023-02-13T16:37:54;102286.50;;;7.41;79.39
61618;BME280;47518;51.776;9.370;2023-02-13T16:40:38;102290.50;;;7.10;81.36
61618;BME280;47518;51.776;9.370;2023-02-13T16:43:32;102294.38;;;7.06;82.09
61618;BME280;47518;51.776;9.370;2023-02-13T16:51:59;102302.72;;;6.63;82.53
61618;BME280;47518;51.776;9.370;2023-02-13T17:10:33;102293.78;;;5.78;85.18
61618;BME280;47518;51.776;9.370;2023-02-13T17:26:13;102288.59;;;5.33;87.01
61618;BME280;47518;51.776;9.370;2023-02-13T17:28:38;102295.00;;;5.16;87.64
61618;BME280;47518;51.776;9.370;2023-02-13T17:31:09;102300.25;;;5.33;87.45
61618;BME280;47518;51.776;9.370;2023-02-13T17:33:35;102301.38;;;5.29;87.62
61618;BME280;47518;51.776;9.370;2023-02-13T17:36:02;102291.47;;;5.30;85.99
61618;BME280;47518;51.776;9.370;2023-02-13T17:38:28;102294.72;;;5.20;87.61
61618;BME280;47518;51.776;9.370;2023-02-13T17:40:53;102296.03;;;4.99;89.47
61618;BME280;47518;51.776;9.370;2023-02-13T17:43:19;102290.72;;;4.97;89.56
61618;BME280;47518;51.776;9.370;2023-02-13T17:45:45;102297.19;;;5.09;88.98
61618;BME280;47518;51.776;9.370;2023-02-13T17:48:11;102299.06;;;5.23;86.61
61618;BME280;47518;51.776;9.370;2023-02-13T17:50:36;102298.88;;;5.26;85.97
61618;BME280;47518;51.776;9.370;2023-02-13T17:53:05;102289.84;;;4.97;87.08
61618;BME280;47518;51.776;9.370;2023-02-13T17:55:32;102289.47;;;4.89;86.90
61618;BME280;47518;51.776;9.370;2023-02-13T17:57:58;102282.34;;;4.88;85.96
61618;BME280;47518;51.776;9.370;2023-02-13T18:00:27;102284.66;;;4.64;86.84
61618;BME280;47518;51.776;9.370;2023-02-13T18:02:53;102288.06;;;4.36;89.30
61618;BME280;47518;51.776;9.370;2023-02-13T18:05:19;102297.88;;;4.37;89.34
61618;BME280;47518;51.776;9.370;2023-02-13T18:07:46;102292.34;;;4.24;89.90
61618;BME280;47518;51.776;9.370;2023-02-13T18:10:19;102297.13;;;4.19;90.47
61618;BME280;47518;51.776;9.370;2023-02-13T18:12:45;102301.34;;;4.39;88.86
61618;BME280;47518;51.776;9.370;2023-02-13T18:15:12;102296.16;;;4.52;88.75
61618;BME280;47518;51.776;9.370;2023-02-13T18:17:37;102297.19;;;4.49;88.75
61618;BME280;47518;51.776;9.370;2023-02-13T18:20:09;102291.97;;;4.46;88.54
61618;BME280;47518;51.776;9.370;2023-02-13T18:22:35;102285.03;;;4.42;89.32
61618;BME280;47518;51.776;9.370;2023-02-13T18:25:01;102281.16;;;4.32;89.31
61618;BME280;47518;51.776;9.370;2023-02-13T18:27:26;102295.22;;;4.21;88.19
61618;BME280;47518;51.776;9.370;2023-02-13T18:29:53;102290.00;;;4.02;90.49
61618;BME280;47518;51.776;9.370;2023-02-13T18:32:19;102302.88;;;4.29;88.24
61618;BME280;47518;51.776;9.370;2023-02-13T18:34:45;102296.16;;;4.36;86.67
61618;BME280;47518;51.776;9.370;2023-02-13T18:37:11;102294.09;;;4.41;86.12
61618;BME280;47518;51.776;9.370;2023-02-13T18:39:36;102288.94;;;4.36;85.93
61618;BME280;47518;51.776;9.370;2023-02-13T18:42:02;102295.31;;;4.20;86.37
61618;BME280;47518;51.776;9.370;2023-02-13T18:44:27;102288.16;;;4.03;86.96
61618;BME280;47518;51.776;9.370;2023-02-13T18:46:52;102295.09;;;3.75;88.93
61618;BME280;47518;51.776;9.370;2023-02-13T18:49:18;102300.66;;;3.88;89.05
61618;BME280;47518;51.776;9.370;2023-02-13T18:51:43;102296.06;;;3.90;88.42
61618;BME280;47518;51.776;9.370;2023-02-13T18:54:08;102298.75;;;3.90;88.93
61618;BME280;47518;51.776;9.370;2023-02-13T18:56:34;102291.72;;;3.88;88.17
61618;BME280;47518;51.776;9.370;2023-02-13T18:58:59;102298.94;;;3.87;88.80
61618;BME280;47518;51.776;9.370;2023-02-13T19:01:25;102301.09;;;3.80;88.74
61618;BME280;47518;51.776;9.370;2023-02-13T19:03:51;102295.09;;;3.91;87.57
61618;BME280;47518;51.776;9.370;2023-02-13T19:06:20;102299.78;;;3.72;88.12
61618;BME280;47518;51.776;9.370;2023-02-13T19:08:45;102300.03;;;3.67;88.83
61618;BME280;47518;51.776;9.370;2023-02-13T19:11:17;102299.94;;;3.69;88.02
61618;BME280;47518;51.776;9.370;2023-02-13T19:13:44;102295.50;;;3.68;87.15
61618;BME280;47518;51.776;9.370;2023-02-13T19:16:13;102303.00;;;3.45;88.24